createdAt,value
2019-04-03T00:00:16.582Z,26.30
2019-04-03T00:02:44.844Z,36.57
2019-04-03T00:05:13.189Z,24.57
2019-04-03T00:07:41.507Z,32.57
2019-04-03T00:10:09.780Z,29.13
2019-04-03T00:12:40.440Z,25.83
2019-04-03T00:15:08.071Z,30.83
2019-04-03T00:17:36.325Z,26.43
2019-04-03T00:20:07.154Z,25.83
2019-04-03T00:22:36.887Z,33.63
2019-04-03T00:25:06.818Z,29.70
2019-04-03T00:27:35.066Z,33.83
2019-04-03T00:30:04.766Z,20.30
2019-04-03T00:32:33.017Z,31.57
2019-04-03T00:35:01.260Z,23.07
2019-04-03T00:37:29.518Z,26.67
2019-04-03T00:39:57.765Z,32.23
2019-04-03T00:42:26.024Z,30.10
2019-04-03T00:44:54.755Z,25.53
2019-04-03T00:47:25.095Z,28.07
2019-04-03T00:49:53.296Z,26.40
2019-04-03T00:52:21.611Z,26.80
2019-04-03T00:54:49.888Z,28.33
2019-04-03T00:57:18.249Z,35.40
2019-04-03T00:59:46.934Z,24.57
2019-04-03T01:02:16.528Z,23.90
2019-04-03T01:04:45.119Z,37.70
2019-04-03T01:07:13.555Z,28.77
2019-04-03T01:09:42.061Z,32.60
2019-04-03T01:12:10.393Z,25.53
2019-04-03T01:14:38.633Z,31.13
2019-04-03T01:17:06.894Z,30.20
2019-04-03T01:19:36.890Z,29.47
2019-04-03T01:22:06.989Z,23.13
2019-04-03T01:24:36.710Z,30.10
2019-04-03T01:27:05.610Z,27.10
2019-04-03T01:29:34.224Z,37.73
2019-04-03T01:32:02.545Z,32.90
2019-04-03T01:34:30.817Z,25.37
2019-04-03T01:36:59.314Z,36.70
2019-04-03T01:39:27.579Z,22.70
2019-04-03T01:41:55.832Z,24.23
2019-04-03T01:44:24.711Z,27.80
2019-04-03T01:46:53.509Z,36.17
2019-04-03T01:49:21.758Z,24.80
2019-04-03T01:51:50.011Z,29.10
2019-04-03T01:54:18.380Z,38.87
2019-04-03T01:56:46.942Z,35.23
2019-04-03T01:59:15.183Z,36.13
2019-04-03T02:01:43.450Z,28.50
2019-04-03T02:04:12.999Z,32.80
2019-04-03T02:06:41.812Z,32.87
2019-04-03T02:09:11.606Z,25.53
2019-04-03T02:11:39.850Z,33.53
2019-04-03T02:14:08.284Z,29.70
2019-04-03T02:16:36.537Z,38.63
2019-04-03T02:19:04.947Z,25.93
2019-04-03T02:21:33.230Z,32.57
2019-04-03T02:24:01.797Z,27.67
2019-04-03T02:26:32.045Z,26.37
2019-04-03T02:29:00.322Z,29.17
2019-04-03T02:31:28.819Z,29.30
2019-04-03T02:33:57.119Z,31.83
2019-04-03T02:36:25.353Z,39.77
2019-04-03T02:38:54.625Z,29.77
2019-04-03T02:41:23.122Z,36.80
2019-04-03T02:43:51.829Z,35.80
2019-04-03T02:46:20.471Z,29.70
2019-04-03T02:48:48.908Z,34.10
2019-04-03T02:51:19.765Z,27.20
2019-04-03T02:53:47.188Z,40.17
2019-04-03T02:56:15.442Z,29.50
2019-04-03T02:58:43.775Z,33.60
2019-04-03T03:01:12.059Z,31.93
2019-04-03T03:03:40.354Z,36.10
2019-04-03T03:06:08.741Z,31.23
2019-04-03T03:08:40.344Z,35.43
2019-04-03T03:11:06.970Z,33.70
2019-04-03T03:13:35.693Z,29.30
2019-04-03T03:16:04.180Z,39.87
2019-04-03T03:18:32.755Z,34.43
2019-04-03T03:21:01.066Z,35.47
2019-04-03T03:23:29.584Z,35.47
2019-04-03T03:25:57.966Z,36.03
2019-04-03T03:28:26.767Z,38.77
2019-04-03T03:31:01.455Z,33.67
2019-04-03T03:33:34.597Z,33.43
2019-04-03T03:35:56.148Z,34.03
2019-04-03T03:38:27.253Z,36.67
2019-04-03T03:40:54.719Z,36.70
2019-04-03T03:43:22.967Z,34.17
2019-04-03T03:45:52.547Z,32.53
2019-04-03T03:48:21.303Z,36.70
2019-04-03T03:50:49.987Z,35.40
2019-04-03T03:53:18.290Z,34.60
2019-04-03T03:55:46.695Z,31.87
2019-04-03T03:58:15.354Z,34.37
2019-04-03T04:00:44.213Z,36.13
2019-04-03T04:03:12.713Z,27.87
2019-04-03T04:05:41.227Z,34.23
2019-04-03T04:08:10.921Z,35.20
2019-04-03T04:10:39.474Z,38.67
2019-04-03T04:13:08.037Z,35.30
2019-04-03T04:15:36.555Z,35.63
2019-04-03T04:18:04.989Z,31.37
2019-04-03T04:20:36.616Z,33.00
2019-04-03T04:23:03.553Z,35.83
2019-04-03T04:25:32.024Z,30.93
2019-04-03T04:28:00.670Z,30.87
2019-04-03T04:30:29.073Z,35.57
2019-04-03T04:32:57.353Z,37.10
2019-04-03T04:35:25.607Z,32.97
2019-04-03T04:37:56.002Z,38.77
2019-04-03T04:40:23.837Z,39.43
2019-04-03T04:42:52.300Z,33.80
2019-04-03T04:45:20.923Z,39.57
2019-04-03T04:47:49.746Z,32.83
2019-04-03T04:50:24.231Z,39.90
2019-04-03T04:52:52.482Z,34.50
2019-04-03T04:55:20.722Z,47.40
2019-04-03T04:57:51.870Z,44.50
2019-04-03T05:00:20.121Z,41.63
2019-04-03T05:02:48.871Z,32.80
2019-04-03T05:05:18.357Z,42.47
2019-04-03T05:07:46.636Z,44.77
2019-04-03T05:10:17.380Z,38.43
2019-04-03T05:12:45.676Z,37.97
2019-04-03T05:18:24.893Z,40.00
2019-04-03T05:20:53.143Z,37.30
2019-04-03T05:23:21.392Z,40.13
2019-04-03T05:25:49.666Z,36.80
2019-04-03T05:28:17.906Z,37.50
2019-04-03T05:30:46.366Z,35.07
2019-04-03T05:33:14.672Z,34.10
2019-04-03T05:35:45.327Z,41.77
2019-04-03T05:38:12.932Z,36.63
2019-04-03T05:40:41.424Z,40.60
2019-04-03T05:43:09.669Z,37.43
2019-04-03T05:45:40.666Z,41.43
2019-04-03T05:48:12.600Z,40.67
2019-04-03T05:50:37.901Z,37.83
2019-04-03T05:53:06.572Z,42.77
2019-04-03T05:55:35.198Z,34.70
2019-04-03T05:58:03.474Z,40.63
2019-04-03T06:00:31.849Z,47.37
2019-04-03T06:03:00.229Z,44.33
2019-04-03T06:05:28.521Z,42.77
2019-04-03T06:07:56.789Z,32.67
2019-04-03T06:10:27.747Z,39.10
2019-04-03T06:12:55.025Z,34.20
2019-04-03T06:15:23.264Z,35.00
2019-04-03T06:17:54.257Z,46.03
2019-04-03T06:20:21.733Z,42.20
2019-04-03T06:22:50.651Z,44.60
2019-04-03T06:25:19.127Z,35.07
2019-04-03T06:27:47.375Z,46.03
2019-04-03T06:30:15.630Z,38.57
2019-04-03T06:32:43.888Z,38.80
2019-04-03T06:35:13.727Z,38.23
2019-04-03T06:37:42.115Z,43.67
2019-04-03T06:40:10.360Z,42.40
2019-04-03T06:42:38.785Z,41.43
2019-04-03T06:45:07.030Z,45.17
2019-04-03T06:47:35.306Z,44.50
2019-04-03T06:50:05.758Z,48.40
2019-04-03T06:52:34.090Z,45.33
2019-04-03T06:55:03.291Z,43.23
2019-04-03T06:57:32.381Z,37.67
2019-04-03T07:00:00.632Z,45.17
2019-04-03T07:02:31.423Z,41.37
2019-04-03T07:05:01.891Z,43.23
2019-04-03T07:07:34.065Z,41.23
2019-04-03T07:09:59.101Z,41.90
2019-04-03T07:12:27.690Z,44.57
2019-04-03T07:14:55.952Z,40.67
2019-04-03T07:17:24.490Z,39.40
2019-04-03T07:19:53.099Z,37.93
2019-04-03T07:22:21.934Z,40.03
2019-04-03T07:24:50.288Z,36.40
2019-04-03T07:27:18.722Z,35.23
2019-04-03T07:29:48.917Z,36.57
2019-04-03T07:32:17.263Z,36.70
2019-04-03T07:34:45.505Z,40.67
2019-04-03T07:37:15.351Z,40.47
2019-04-03T07:39:43.940Z,38.20
2019-04-03T07:42:12.258Z,33.60
2019-04-03T07:44:40.585Z,39.93
2019-04-03T07:47:08.841Z,36.97
2019-04-03T07:49:37.708Z,37.17
2019-04-03T07:52:07.073Z,42.23
2019-04-03T07:54:35.325Z,33.60
2019-04-03T07:57:03.572Z,32.33
2019-04-03T07:59:33.420Z,38.50
2019-04-03T08:02:01.803Z,41.00
2019-04-03T08:04:30.065Z,38.43
2019-04-03T08:06:58.311Z,38.03
2019-04-03T08:09:26.776Z,42.83
2019-04-03T08:11:55.604Z,44.07
2019-04-03T08:14:23.859Z,35.60
2019-04-03T08:16:52.104Z,39.23
2019-04-03T08:19:22.235Z,32.90
2019-04-03T08:21:50.645Z,29.27
2019-04-03T08:24:18.906Z,33.80
2019-04-03T08:26:47.157Z,31.57
2019-04-03T08:29:15.409Z,37.38
2019-04-03T08:31:47.753Z,34.75
2019-04-03T08:34:16.665Z,33.78
2019-04-03T08:36:43.751Z,32.42
2019-04-03T08:39:13.697Z,38.98
2019-04-03T08:41:42.610Z,29.32
2019-04-03T08:44:10.894Z,36.15
2019-04-03T08:46:39.138Z,41.80
2019-04-03T08:49:07.399Z,31.70
2019-04-03T08:51:35.645Z,33.28
2019-04-03T08:54:04.218Z,30.97
2019-04-03T08:56:32.864Z,39.95
2019-04-03T08:59:01.486Z,31.65
2019-04-03T09:01:30.275Z,29.77
2019-04-03T09:03:58.629Z,32.10
2019-04-03T09:06:27.047Z,33.10
2019-04-03T09:08:57.284Z,37.00
2019-04-03T09:11:25.546Z,30.57
2019-04-03T09:13:54.860Z,33.58
2019-04-03T09:16:23.783Z,32.35
2019-04-03T09:18:52.363Z,35.25
2019-04-03T09:21:20.673Z,32.20
2019-04-03T09:23:48.968Z,39.15
2019-04-03T09:26:17.498Z,33.50
2019-04-03T09:28:46.007Z,32.23
2019-04-03T09:31:14.612Z,35.17
2019-04-03T09:33:42.931Z,32.13
2019-04-03T09:36:11.842Z,33.53
2019-04-03T09:38:41.533Z,26.85
2019-04-03T09:41:10.240Z,34.88
2019-04-03T09:43:39.658Z,31.97
2019-04-03T09:46:08.424Z,28.32
2019-04-03T09:48:37.464Z,27.82
2019-04-03T09:51:08.896Z,32.30
2019-04-03T09:53:35.891Z,31.87
2019-04-03T09:56:07.222Z,36.17
2019-04-03T09:58:35.623Z,31.97
2019-04-03T10:01:04.166Z,30.70
2019-04-03T10:03:32.408Z,37.28
2019-04-03T10:06:00.851Z,38.88
2019-04-03T10:08:29.386Z,33.95
2019-04-03T10:10:58.088Z,30.80
2019-04-03T10:13:26.864Z,36.28
2019-04-03T10:15:55.161Z,38.63
2019-04-03T10:18:23.412Z,31.52
2019-04-03T10:20:51.986Z,31.73
2019-04-03T10:23:20.282Z,28.98
2019-04-03T10:25:48.542Z,33.80
2019-04-03T10:28:16.803Z,27.58
2019-04-03T10:30:45.155Z,26.62
2019-04-03T10:33:13.396Z,28.20
2019-04-03T10:35:41.911Z,25.25
2019-04-03T10:38:10.158Z,27.30
2019-04-03T10:40:38.629Z,28.47
2019-04-03T10:43:06.964Z,29.55
2019-04-03T10:45:35.245Z,28.75
2019-04-03T10:48:03.814Z,30.65
2019-04-03T10:50:32.621Z,26.77
2019-04-03T10:53:01.127Z,31.37
2019-04-03T10:55:29.634Z,31.50
2019-04-03T10:58:00.774Z,37.53
2019-04-03T11:00:29.232Z,28.85
2019-04-03T11:02:57.806Z,27.77
2019-04-03T11:05:26.098Z,26.30
2019-04-03T11:07:54.395Z,25.40
2019-04-03T11:10:24.223Z,27.87
2019-04-03T11:12:52.621Z,29.32
2019-04-03T11:15:20.898Z,24.67
2019-04-03T11:17:49.992Z,37.23
2019-04-03T11:20:18.475Z,31.15
2019-04-03T11:22:48.284Z,34.00
2019-04-03T11:25:17.330Z,29.48
2019-04-03T11:27:46.254Z,30.15
2019-04-03T11:30:18.287Z,28.27
2019-04-03T11:32:45.268Z,29.67
2019-04-03T11:35:14.152Z,36.75
2019-04-03T11:37:42.723Z,33.50
2019-04-03T11:40:11.041Z,31.40
2019-04-03T11:42:39.288Z,30.90
2019-04-03T11:45:07.983Z,32.85
2019-04-03T11:47:36.592Z,36.40
2019-04-03T11:50:07.919Z,25.35
2019-04-03T11:52:36.220Z,33.98
2019-04-03T11:55:05.698Z,32.75
2019-04-03T11:57:34.152Z,32.05
2019-04-03T12:00:02.397Z,27.95
2019-04-03T12:02:30.709Z,24.90
2019-04-03T12:04:59.238Z,27.82
2019-04-03T12:07:27.518Z,27.40
2019-04-03T12:09:56.081Z,24.72
2019-04-03T12:12:24.762Z,31.73
2019-04-03T12:14:53.288Z,29.67
2019-04-03T12:17:21.582Z,26.00
2019-04-03T12:19:50.094Z,28.17
2019-04-03T12:22:21.297Z,27.25
2019-04-03T12:24:48.556Z,29.07
2019-04-03T12:27:17.417Z,29.50
2019-04-03T12:29:45.670Z,41.48
2019-04-03T12:32:13.966Z,31.23
2019-04-03T12:34:42.850Z,29.82
2019-04-03T12:37:11.551Z,30.10
2019-04-03T12:39:39.944Z,21.50
2019-04-03T12:42:09.352Z,26.35
2019-04-03T12:44:37.940Z,24.32
2019-04-03T12:47:12.148Z,27.37
2019-04-03T12:49:36.176Z,26.75
2019-04-03T12:52:05.146Z,27.65
2019-04-03T12:54:36.023Z,23.12
2019-04-03T12:57:04.548Z,23.87
2019-04-03T12:59:32.825Z,25.08
2019-04-03T13:02:01.527Z,31.40
2019-04-03T13:04:31.079Z,20.10
2019-04-03T13:07:00.010Z,24.07
2019-04-03T13:09:28.561Z,26.80
2019-04-03T13:11:57.259Z,25.77
2019-04-03T13:14:27.387Z,26.20
2019-04-03T13:16:55.598Z,25.80
2019-04-03T13:19:25.186Z,31.85
2019-04-03T13:21:53.885Z,23.98
2019-04-03T13:24:22.412Z,20.92
2019-04-03T13:26:50.721Z,21.45
2019-04-03T13:29:20.871Z,21.55
2019-04-03T13:31:48.962Z,25.35
2019-04-03T13:34:17.572Z,34.20
2019-04-03T13:36:46.706Z,24.05
2019-04-03T13:39:15.592Z,20.02
2019-04-03T13:41:43.852Z,22.27
2019-04-03T13:44:12.346Z,27.05
2019-04-03T13:46:40.944Z,24.67
2019-04-03T13:49:09.445Z,20.65
2019-04-03T13:51:38.055Z,21.95
2019-04-03T13:54:07.984Z,27.07
2019-04-03T13:56:36.986Z,21.60
2019-04-03T13:59:05.881Z,25.52
2019-04-03T14:01:34.188Z,23.83
2019-04-03T14:04:02.590Z,21.30
2019-04-03T14:06:31.031Z,19.73
2019-04-03T14:08:59.585Z,17.15
2019-04-03T14:11:28.453Z,25.80
2019-04-03T14:13:58.952Z,23.67
2019-04-03T14:16:27.325Z,26.40
2019-04-03T14:18:55.590Z,27.22
2019-04-03T14:21:25.306Z,23.83
2019-04-03T14:23:54.246Z,21.10
2019-04-03T14:26:22.497Z,21.15
2019-04-03T14:28:50.942Z,25.60
2019-04-03T14:31:19.183Z,30.20
2019-04-03T14:33:47.779Z,19.15
2019-04-03T14:36:19.194Z,22.13
2019-04-03T14:38:46.954Z,24.25
2019-04-03T14:41:17.359Z,25.92
2019-04-03T14:43:46.083Z,25.48
2019-04-03T14:46:17.266Z,25.75
2019-04-03T14:48:44.924Z,18.85
2019-04-03T14:51:13.306Z,24.90
2019-04-03T14:53:41.560Z,20.55
2019-04-03T14:56:09.808Z,21.55
2019-04-03T14:58:38.207Z,22.22
2019-04-03T15:01:06.576Z,21.65
2019-04-03T15:03:34.989Z,19.45
2019-04-03T15:06:03.604Z,25.12
2019-04-03T15:08:32.457Z,24.00
2019-04-03T15:11:02.996Z,24.63
2019-04-03T15:13:30.912Z,16.85
2019-04-03T15:16:00.574Z,20.43
2019-04-03T15:18:29.078Z,18.07
2019-04-03T15:20:57.750Z,19.77
2019-04-03T15:23:26.571Z,24.60
2019-04-03T15:25:54.948Z,32.33
2019-04-03T15:28:23.395Z,21.87
2019-04-03T15:30:51.837Z,22.35
2019-04-03T15:33:23.041Z,25.43
2019-04-03T15:35:50.057Z,24.37
2019-04-03T15:38:19.283Z,22.13
2019-04-03T15:40:47.919Z,32.30
2019-04-03T15:43:16.794Z,21.85
2019-04-03T15:45:45.711Z,27.70
2019-04-03T15:48:13.961Z,21.87
2019-04-03T15:50:42.457Z,23.83
2019-04-03T15:53:10.969Z,21.87
2019-04-03T15:55:39.569Z,22.10
2019-04-03T15:58:08.232Z,23.27
2019-04-03T16:00:36.708Z,21.27
2019-04-03T16:03:05.040Z,19.62
2019-04-03T16:05:35.633Z,19.27
2019-04-03T16:08:03.260Z,21.15
2019-04-03T16:10:31.833Z,23.25
2019-04-03T16:13:00.081Z,19.27
2019-04-03T16:15:28.856Z,18.40
2019-04-03T16:17:57.198Z,21.35
2019-04-03T16:20:25.700Z,24.52
2019-04-03T16:22:53.955Z,19.60
2019-04-03T16:25:22.297Z,18.60
2019-04-03T16:27:50.937Z,19.80
2019-04-03T16:30:19.636Z,21.68
2019-04-03T16:32:48.357Z,18.80
2019-04-03T16:35:17.562Z,22.02
2019-04-03T16:37:45.809Z,20.00
2019-04-03T16:40:14.083Z,26.70
2019-04-03T16:42:43.248Z,24.45
2019-04-03T16:45:12.035Z,18.62
2019-04-03T16:47:40.367Z,19.45
2019-04-03T16:50:08.901Z,19.37
2019-04-03T16:52:38.172Z,22.80
2019-04-03T16:55:07.818Z,19.75
2019-04-03T16:57:36.219Z,21.48
2019-04-03T17:00:08.394Z,27.85
2019-04-03T17:02:37.069Z,24.55
2019-04-03T17:05:06.731Z,26.52
2019-04-03T17:07:37.549Z,23.67
2019-04-03T17:10:05.910Z,19.40
2019-04-03T17:12:34.438Z,17.65
2019-04-03T17:15:02.950Z,22.62
2019-04-03T17:17:31.456Z,27.00
2019-04-03T17:19:59.867Z,19.70
2019-04-03T17:22:28.160Z,15.80
2019-04-03T17:24:56.668Z,13.48
2019-04-03T17:27:24.960Z,16.93
2019-04-03T17:29:53.530Z,24.25
2019-04-03T17:32:22.196Z,25.80
2019-04-03T17:34:51.204Z,17.82
2019-04-03T17:37:20.596Z,18.48
2019-04-03T17:39:48.929Z,21.40
2019-04-03T17:42:17.172Z,15.70
2019-04-03T17:44:45.442Z,22.50
2019-04-03T17:47:13.983Z,17.75
2019-04-03T17:49:42.230Z,18.17
2019-04-03T17:52:10.594Z,18.77
2019-04-03T17:54:39.143Z,20.72
2019-04-03T17:57:07.470Z,25.05
2019-04-03T17:59:35.730Z,20.90
2019-04-03T18:02:03.983Z,16.60
2019-04-03T18:04:32.228Z,47.15
2019-04-03T18:07:00.492Z,21.93
2019-04-03T18:09:28.768Z,19.27
2019-04-03T18:11:58.098Z,25.00
2019-04-03T18:14:27.046Z,22.13
2019-04-03T18:16:55.396Z,25.17
2019-04-03T18:19:23.648Z,24.07
2019-04-03T18:21:51.913Z,29.18
2019-04-03T18:24:23.016Z,29.50
2019-04-03T18:26:50.427Z,24.98
2019-04-03T18:29:18.675Z,20.43
2019-04-03T18:31:46.935Z,22.58
2019-04-03T18:34:15.189Z,23.12
2019-04-03T18:36:43.469Z,29.37
2019-04-03T18:39:11.724Z,26.60
2019-04-03T18:41:39.982Z,32.15
2019-04-03T18:44:08.233Z,46.58
2019-04-03T18:46:36.982Z,32.63
2019-04-03T18:49:05.360Z,26.75
2019-04-03T18:51:36.458Z,31.07
2019-04-03T18:54:03.594Z,24.85
2019-04-03T18:56:32.271Z,30.68
2019-04-03T18:59:00.707Z,24.00
2019-04-03T19:01:28.963Z,30.60
2019-04-03T19:03:57.227Z,21.70
2019-04-03T19:06:25.482Z,28.00
2019-04-03T19:08:54.001Z,22.60
2019-04-03T19:11:22.249Z,29.30
2019-04-03T19:13:50.512Z,30.05
2019-04-03T19:16:28.916Z,27.23
2019-04-03T19:18:49.242Z,30.23
2019-04-03T19:21:24.720Z,31.13
2019-04-03T19:23:50.021Z,28.98
2019-04-03T19:26:17.581Z,30.80
2019-04-03T19:28:45.836Z,27.13
2019-04-03T19:31:14.091Z,23.83
2019-04-03T19:33:44.742Z,26.68
2019-04-03T19:36:12.431Z,26.40
2019-04-03T19:38:40.750Z,27.37
2019-04-03T19:41:09.953Z,25.60
2019-04-03T19:43:38.977Z,31.27
2019-04-03T19:46:07.229Z,34.23
2019-04-03T19:48:35.496Z,28.53
2019-04-03T19:51:03.756Z,35.50
2019-04-03T19:53:32.001Z,30.80
2019-04-03T19:56:00.249Z,35.98
2019-04-03T19:58:29.551Z,28.97
2019-04-03T20:00:58.239Z,34.05
2019-04-03T20:03:26.751Z,33.27
2019-04-03T20:05:55.297Z,38.33
2019-04-03T20:08:23.645Z,34.15
2019-04-03T20:10:51.894Z,29.27
2019-04-03T20:13:20.156Z,27.50
2019-04-03T20:15:48.408Z,32.37
2019-04-03T20:18:16.669Z,36.50
2019-04-03T20:20:44.941Z,31.55
2019-04-03T20:23:13.208Z,31.23
2019-04-03T20:25:41.460Z,30.50
2019-04-03T20:28:10.054Z,28.53
2019-04-03T20:30:38.553Z,34.33
2019-04-03T20:33:07.065Z,36.30
2019-04-03T20:35:35.312Z,29.00
2019-04-03T20:38:03.572Z,36.10
2019-04-03T20:40:33.788Z,29.73
2019-04-03T20:43:01.834Z,30.50
2019-04-03T20:45:30.113Z,31.95
2019-04-03T20:47:58.440Z,31.33
2019-04-03T20:50:26.703Z,33.53
2019-04-03T20:52:56.965Z,30.67
2019-04-03T20:58:54.911Z,31.90
2019-04-03T21:01:12.206Z,20.70
2019-04-03T21:03:41.850Z,28.83
2019-04-03T21:06:10.685Z,24.75
2019-04-03T21:08:38.943Z,35.10
2019-04-03T21:11:07.198Z,28.43
2019-04-03T21:13:35.473Z,23.47
2019-04-03T21:16:03.731Z,32.03
2019-04-03T21:18:31.995Z,24.70
2019-04-03T21:21:01.518Z,28.87
2019-04-03T21:23:29.990Z,31.40
2019-04-03T21:25:58.623Z,29.83
2019-04-03T21:28:26.881Z,24.17
2019-04-03T21:30:55.540Z,32.60
2019-04-03T21:33:23.883Z,29.33
2019-04-03T21:35:52.186Z,29.33
2019-04-03T21:38:20.448Z,27.90
2019-04-03T21:40:48.693Z,31.73
2019-04-03T21:43:17.218Z,27.67
2019-04-03T21:45:45.730Z,24.97
2019-04-03T21:48:14.369Z,28.27
2019-04-03T21:50:42.727Z,35.40
2019-04-03T21:53:11.225Z,27.67
2019-04-03T21:55:39.753Z,22.23
2019-04-03T21:58:08.927Z,26.63
2019-04-03T22:00:59.185Z,28.67
2019-04-03T22:03:27.473Z,24.30
2019-04-03T22:05:56.175Z,22.67
2019-04-03T22:08:24.853Z,21.73
2019-04-03T22:10:53.120Z,21.70
2019-04-03T22:13:21.381Z,26.13
2019-04-03T22:15:49.723Z,25.53
2019-04-03T22:18:17.965Z,27.27
2019-04-03T22:20:46.225Z,27.50
2019-04-03T22:23:14.474Z,27.27
2019-04-03T22:25:42.740Z,29.70
2019-04-03T22:28:13.204Z,22.17
2019-04-03T22:30:40.964Z,23.13
2019-04-03T22:33:09.479Z,23.23
2019-04-03T22:35:37.733Z,21.10
2019-04-03T22:38:06.162Z,25.27
2019-04-03T22:40:34.511Z,25.47
2019-04-03T22:43:02.784Z,30.87
2019-04-03T22:45:31.037Z,26.67
2019-04-03T22:47:59.300Z,26.90
2019-04-03T22:50:27.565Z,25.97
2019-04-03T22:52:56.065Z,27.33
2019-04-03T22:55:24.584Z,26.80
2019-04-03T22:57:52.841Z,22.03
2019-04-03T23:00:21.121Z,23.67
2019-04-03T23:02:49.356Z,23.10
2019-04-03T23:05:17.734Z,24.93
2019-04-03T23:07:46.047Z,20.73
2019-04-03T23:10:14.300Z,31.73
2019-04-03T23:12:42.564Z,27.80
2019-04-03T23:15:10.814Z,28.43
2019-04-03T23:17:39.313Z,32.03
2019-04-03T23:20:07.821Z,23.17
2019-04-03T23:22:36.078Z,25.73
2019-04-03T23:25:06.176Z,23.73
2019-04-03T23:27:34.454Z,25.20
2019-04-03T23:30:03.158Z,33.00
2019-04-03T23:32:31.421Z,23.40
2019-04-03T23:34:59.667Z,26.33
2019-04-03T23:37:27.919Z,28.07
2019-04-03T23:39:56.184Z,28.67
2019-04-03T23:42:24.726Z,24.17
2019-04-03T23:44:52.979Z,32.30
2019-04-03T23:47:21.246Z,30.10
2019-04-03T23:49:51.077Z,25.23
2019-04-03T23:52:19.481Z,23.13
2019-04-03T23:54:47.741Z,36.63
2019-04-03T23:57:16.267Z,25.87
2019-04-03T23:59:44.984Z,33.40
